createdAt,value
2022-07-26T00:00:43.960Z,20.86
2022-07-26T00:03:10.890Z,20.89
2022-07-26T00:05:38.910Z,20.85
2022-07-26T00:08:13.710Z,20.95
2022-07-26T00:10:43.458Z,20.91
2022-07-26T00:13:11.207Z,20.84
2022-07-26T00:15:39.104Z,20.81
2022-07-26T00:18:06.397Z,20.84
2022-07-26T00:20:38.852Z,20.83
2022-07-26T00:23:06.300Z,20.78
2022-07-26T00:25:33.710Z,20.75
2022-07-26T00:28:00.654Z,20.75
2022-07-26T00:30:29.002Z,20.71
2022-07-26T00:32:55.955Z,20.68
2022-07-26T00:35:23.215Z,20.70
2022-07-26T00:37:50.016Z,20.62
2022-07-26T00:40:17.711Z,20.59
2022-07-26T00:42:44.961Z,20.60
2022-07-26T00:45:12.877Z,20.59
2022-07-26T00:47:39.675Z,20.61
2022-07-26T00:50:10.744Z,20.59
2022-07-26T00:52:37.590Z,20.44
2022-07-26T00:55:06.682Z,20.57
2022-07-26T00:57:35.897Z,20.48
2022-07-26T01:00:08.704Z,20.36
2022-07-26T01:02:35.587Z,20.36
2022-07-26T01:05:02.662Z,20.36
2022-07-26T01:07:29.873Z,20.41
2022-07-26T01:09:57.362Z,20.36
2022-07-26T01:12:24.605Z,20.34
2022-07-26T01:14:51.441Z,20.32
2022-07-26T01:17:18.424Z,20.27
2022-07-26T01:19:45.256Z,20.18
2022-07-26T01:22:14.779Z,20.21
2022-07-26T01:24:42.447Z,20.21
2022-07-26T01:27:09.253Z,20.23
2022-07-26T01:29:36.520Z,20.19
2022-07-26T01:32:05.178Z,20.19
2022-07-26T01:34:32.922Z,20.14
2022-07-26T01:37:00.556Z,20.15
2022-07-26T01:39:27.337Z,20.12
2022-07-26T01:41:54.565Z,20.00
2022-07-26T01:44:23.110Z,20.01
2022-07-26T01:46:50.448Z,19.93
2022-07-26T01:49:17.960Z,19.96
2022-07-26T01:51:45.253Z,19.92
2022-07-26T01:54:12.512Z,19.90
2022-07-26T01:56:39.665Z,19.87
2022-07-26T01:59:06.586Z,19.81
2022-07-26T02:01:38.714Z,19.77
2022-07-26T02:04:07.542Z,19.71
2022-07-26T02:06:34.638Z,19.66
2022-07-26T02:09:01.771Z,19.60
2022-07-26T02:11:29.016Z,19.57
2022-07-26T02:13:55.865Z,19.56
2022-07-26T02:16:22.830Z,19.43
2022-07-26T02:18:49.664Z,19.49
2022-07-26T02:21:16.572Z,19.46
2022-07-26T02:23:43.564Z,19.45
2022-07-26T02:26:10.448Z,19.39
2022-07-26T02:28:37.412Z,19.34
2022-07-26T02:31:04.524Z,19.40
2022-07-26T02:33:31.770Z,19.33
2022-07-26T02:35:58.515Z,19.32
2022-07-26T02:38:25.481Z,19.26
2022-07-26T02:40:52.918Z,19.25
2022-07-26T02:43:20.231Z,19.26
2022-07-26T02:46:01.037Z,19.28
2022-07-26T02:48:28.304Z,19.31
2022-07-26T02:50:55.274Z,19.26
2022-07-26T02:53:22.167Z,19.27
2022-07-26T02:55:49.010Z,19.23
2022-07-26T02:58:15.785Z,19.27
2022-07-26T03:00:42.856Z,19.27
2022-07-26T03:03:14.099Z,19.29
2022-07-26T03:05:41.644Z,19.24
2022-07-26T03:08:08.525Z,19.22
2022-07-26T03:10:35.546Z,19.17
2022-07-26T03:13:02.551Z,19.14
2022-07-26T03:15:29.700Z,19.02
2022-07-26T03:17:56.704Z,19.10
2022-07-26T03:20:23.803Z,19.01
2022-07-26T03:22:50.798Z,19.05
2022-07-26T03:25:17.566Z,19.09
2022-07-26T03:27:44.444Z,19.12
2022-07-26T03:30:12.292Z,19.14
2022-07-26T03:32:39.396Z,19.10
2022-07-26T03:35:07.190Z,18.92
2022-07-26T03:37:45.415Z,19.08
2022-07-26T03:40:16.829Z,19.00
2022-07-26T03:42:44.728Z,19.05
2022-07-26T03:45:12.469Z,19.08
2022-07-26T03:47:39.315Z,19.08
2022-07-26T03:50:07.285Z,19.05
2022-07-26T03:52:34.870Z,18.94
2022-07-26T03:55:21.752Z,18.91
2022-07-26T03:57:48.534Z,18.93
2022-07-26T04:00:15.610Z,18.96
2022-07-26T04:02:42.584Z,18.89
2022-07-26T04:05:10.433Z,19.03
2022-07-26T04:07:53.193Z,19.09
2022-07-26T04:10:21.895Z,19.16
2022-07-26T04:12:49.977Z,19.19
2022-07-26T04:15:19.282Z,19.37
2022-07-26T04:17:48.441Z,19.42
2022-07-26T04:20:16.563Z,19.38
2022-07-26T04:22:43.462Z,19.28
2022-07-26T04:25:10.414Z,19.16
2022-07-26T04:27:38.158Z,19.05
2022-07-26T04:30:14.108Z,19.01
2022-07-26T04:32:42.036Z,19.05
2022-07-26T04:35:09.563Z,19.15
2022-07-26T04:37:44.986Z,19.26
2022-07-26T04:40:16.479Z,19.49
2022-07-26T04:42:43.639Z,19.65
2022-07-26T04:45:13.054Z,19.82
2022-07-26T04:47:44.827Z,19.97
2022-07-26T04:50:12.638Z,20.13
2022-07-26T04:52:41.014Z,20.36
2022-07-26T04:55:09.336Z,20.47
2022-07-26T04:57:36.440Z,20.62
2022-07-26T05:00:22.813Z,20.88
2022-07-26T05:02:54.222Z,21.07
2022-07-26T05:05:22.494Z,21.25
2022-07-26T05:07:51.912Z,21.45
2022-07-26T05:10:20.382Z,21.62
2022-07-26T05:12:48.431Z,21.77
2022-07-26T05:15:15.718Z,21.95
2022-07-26T05:17:43.747Z,22.07
2022-07-26T05:20:14.043Z,22.23
2022-07-26T05:22:41.161Z,22.33
2022-07-26T05:25:08.831Z,22.50
2022-07-26T05:27:35.999Z,22.62
2022-07-26T05:30:03.554Z,22.76
2022-07-26T05:32:30.375Z,22.85
2022-07-26T05:34:57.256Z,22.98
2022-07-26T05:37:23.993Z,23.12
2022-07-26T05:39:50.753Z,23.23
2022-07-26T05:42:17.557Z,23.32
2022-07-26T05:44:44.571Z,23.54
2022-07-26T05:47:11.630Z,23.62
2022-07-26T05:49:40.179Z,23.77
2022-07-26T05:52:08.515Z,23.92
2022-07-26T05:54:35.850Z,24.01
2022-07-26T05:57:03.761Z,24.08
2022-07-26T05:59:33.233Z,24.23
2022-07-26T06:02:00.117Z,24.35
2022-07-26T06:04:28.064Z,24.36
2022-07-26T06:06:55.547Z,24.50
2022-07-26T06:09:24.917Z,24.64
2022-07-26T06:11:52.013Z,24.76
2022-07-26T06:14:19.782Z,24.91
2022-07-26T06:16:47.824Z,24.95
2022-07-26T06:19:15.217Z,25.06
2022-07-26T06:21:46.182Z,25.07
2022-07-26T06:24:13.704Z,25.32
2022-07-26T06:26:40.886Z,25.36
2022-07-26T06:29:07.818Z,25.50
2022-07-26T06:31:34.990Z,25.53
2022-07-26T06:34:02.046Z,25.61
2022-07-26T06:36:31.015Z,25.66
2022-07-26T06:38:58.779Z,25.87
2022-07-26T06:41:25.867Z,26.01
2022-07-26T06:43:52.870Z,26.04
2022-07-26T06:46:21.278Z,26.08
2022-07-26T06:48:53.154Z,26.37
2022-07-26T06:51:24.448Z,26.54
2022-07-26T06:53:51.839Z,26.56
2022-07-26T06:56:19.701Z,26.75
2022-07-26T06:58:47.318Z,26.87
2022-07-26T07:01:57.647Z,26.96
2022-07-26T07:04:01.205Z,27.12
2022-07-26T07:06:28.150Z,27.21
2022-07-26T07:08:55.020Z,27.27
2022-07-26T07:11:22.254Z,27.41
2022-07-26T07:13:49.806Z,27.54
2022-07-26T07:16:16.713Z,27.70
2022-07-26T07:18:43.469Z,27.73
2022-07-26T07:21:10.353Z,27.87
2022-07-26T07:23:37.160Z,27.97
2022-07-26T07:26:04.009Z,28.01
2022-07-26T07:28:33.774Z,28.12
2022-07-26T07:31:01.551Z,28.21
2022-07-26T07:33:36.445Z,28.36
2022-07-26T07:36:10.624Z,28.53
2022-07-26T07:38:37.534Z,28.53
2022-07-26T07:41:09.726Z,28.60
2022-07-26T07:43:36.460Z,28.81
2022-07-26T07:46:03.641Z,29.05
2022-07-26T07:48:30.933Z,28.94
2022-07-26T07:50:58.125Z,29.30
2022-07-26T07:53:25.827Z,29.28
2022-07-26T07:55:55.338Z,28.94
2022-07-26T07:58:22.272Z,28.85
2022-07-26T08:00:49.181Z,29.00
2022-07-26T08:03:17.821Z,29.20
2022-07-26T08:05:47.192Z,29.35
2022-07-26T08:08:17.356Z,29.62
2022-07-26T08:10:51.572Z,29.73
2022-07-26T08:13:21.366Z,29.93
2022-07-26T08:15:52.975Z,30.22
2022-07-26T08:18:22.373Z,30.31
2022-07-26T08:20:51.336Z,30.40
2022-07-26T08:23:20.663Z,30.44
2022-07-26T08:25:56.430Z,30.25
2022-07-26T08:31:13.878Z,30.05
2022-07-26T08:33:46.412Z,30.34
2022-07-26T08:36:15.582Z,30.58
2022-07-26T08:38:42.999Z,30.82
2022-07-26T08:41:10.109Z,30.97
2022-07-26T08:43:48.942Z,31.23
2022-07-26T08:46:24.913Z,31.15
2022-07-26T08:48:52.644Z,30.86
2022-07-26T08:51:22.726Z,30.92
2022-07-26T08:53:51.045Z,30.42
2022-07-26T08:56:18.006Z,30.77
2022-07-26T08:58:45.708Z,30.96
2022-07-26T09:01:13.412Z,30.73
2022-07-26T09:03:41.952Z,30.63
2022-07-26T09:06:21.279Z,30.60
2022-07-26T09:08:53.054Z,30.60
2022-07-26T09:11:30.058Z,30.76
2022-07-26T09:13:59.906Z,31.16
2022-07-26T09:16:27.079Z,31.58
2022-07-26T09:18:55.024Z,31.73
2022-07-26T09:21:32.977Z,31.58
2022-07-26T09:24:00.564Z,31.30
2022-07-26T09:26:28.367Z,31.55
2022-07-26T09:29:09.125Z,31.59
2022-07-26T09:31:37.950Z,31.66
2022-07-26T09:34:07.075Z,31.73
2022-07-26T09:36:50.799Z,31.90
2022-07-26T09:39:17.891Z,31.89
2022-07-26T09:42:26.920Z,31.78
2022-07-26T09:44:55.256Z,31.92
2022-07-26T09:47:23.137Z,32.10
2022-07-26T09:49:50.285Z,32.34
2022-07-26T09:52:21.878Z,32.67
2022-07-26T09:54:49.734Z,32.96
2022-07-26T09:57:18.409Z,33.16
2022-07-26T09:59:46.297Z,33.30
2022-07-26T10:02:14.327Z,33.12
2022-07-26T10:04:42.344Z,33.05
2022-07-26T10:07:10.749Z,33.01
2022-07-26T10:09:47.341Z,32.82
2022-07-26T10:12:16.654Z,32.69
2022-07-26T10:14:46.213Z,32.63
2022-07-26T10:17:35.168Z,33.29
2022-07-26T10:20:16.834Z,32.82
2022-07-26T10:22:52.338Z,32.98
2022-07-26T10:25:19.192Z,32.92
2022-07-26T10:27:47.763Z,32.62
2022-07-26T10:30:17.499Z,32.88
2022-07-26T10:33:04.194Z,33.27
2022-07-26T10:35:34.560Z,33.90
2022-07-26T10:38:06.551Z,34.39
2022-07-26T10:40:34.311Z,34.21
2022-07-26T10:43:39.515Z,34.21
2022-07-26T10:46:16.905Z,34.45
2022-07-26T10:49:04.625Z,34.73
2022-07-26T10:52:05.416Z,34.50
2022-07-26T10:54:32.481Z,34.28
2022-07-26T10:56:59.602Z,34.44
2022-07-26T10:59:54.889Z,34.60
2022-07-26T11:02:21.528Z,35.11
2022-07-26T11:04:49.664Z,35.33
2022-07-26T11:07:16.777Z,35.22
2022-07-26T11:09:43.561Z,35.16
2022-07-26T11:12:20.327Z,35.40
2022-07-26T11:14:48.526Z,35.70
2022-07-26T11:17:26.997Z,35.72
2022-07-26T11:19:54.495Z,35.82
2022-07-26T11:22:22.327Z,36.47
2022-07-26T11:24:49.301Z,37.11
2022-07-26T11:27:16.097Z,37.36
2022-07-26T11:29:49.276Z,37.76
2022-07-26T11:32:24.036Z,38.32
2022-07-26T11:35:01.765Z,38.77
2022-07-26T11:37:29.950Z,38.84
2022-07-26T11:39:57.514Z,38.71
2022-07-26T11:42:24.700Z,38.45
2022-07-26T11:50:22.966Z,36.57
2022-07-26T11:52:55.538Z,36.20
2022-07-26T13:01:27.260Z,39.85
2022-07-26T13:03:56.039Z,39.59
2022-07-26T13:06:23.271Z,40.07
2022-07-26T13:08:50.432Z,39.97
2022-07-26T13:21:36.995Z,40.32
2022-07-26T13:24:04.027Z,41.05
2022-07-26T13:26:35.391Z,40.99
2022-07-26T13:29:04.260Z,40.40
2022-07-26T13:31:32.710Z,39.82
2022-07-26T13:34:00.374Z,40.46
2022-07-26T13:36:27.275Z,40.99
2022-07-26T13:38:54.215Z,40.62
2022-07-26T13:41:21.041Z,39.96
2022-07-26T13:43:48.061Z,40.47
2022-07-26T13:46:15.150Z,41.00
2022-07-26T13:48:58.207Z,40.68
2022-07-26T13:51:48.250Z,40.49
2022-07-26T13:54:16.829Z,40.13
2022-07-26T13:56:44.542Z,39.98
2022-07-26T13:59:12.450Z,40.33
2022-07-26T14:01:43.431Z,40.57
2022-07-26T14:04:13.117Z,40.42
2022-07-26T14:06:41.200Z,40.45
2022-07-26T14:09:10.935Z,39.48
2022-07-26T14:11:41.542Z,39.61
2022-07-26T14:14:10.094Z,39.46
2022-07-26T14:16:37.818Z,39.73
2022-07-26T14:19:06.370Z,39.89
2022-07-26T14:21:38.637Z,39.48
2022-07-26T14:24:16.657Z,39.67
2022-07-26T14:26:47.888Z,39.23
2022-07-26T14:29:15.293Z,39.13
2022-07-26T14:31:42.157Z,39.83
2022-07-26T14:34:09.284Z,40.37
2022-07-26T14:36:36.442Z,39.95
2022-07-26T14:39:03.534Z,40.01
2022-07-26T14:41:31.765Z,39.62
2022-07-26T14:43:58.700Z,40.48
2022-07-26T14:46:25.679Z,40.05
2022-07-26T14:48:54.956Z,39.32
2022-07-26T14:51:22.690Z,39.34
2022-07-26T14:53:49.514Z,39.32
2022-07-26T14:56:16.330Z,39.14
2022-07-26T14:58:43.213Z,39.29
2022-07-26T15:01:10.109Z,39.19
2022-07-26T15:03:37.089Z,39.17
2022-07-26T15:06:04.006Z,39.18
2022-07-26T15:08:30.966Z,38.77
2022-07-26T15:10:57.941Z,39.02
2022-07-26T15:13:25.150Z,39.21
2022-07-26T15:15:52.423Z,39.29
2022-07-26T15:18:19.294Z,38.73
2022-07-26T15:20:47.040Z,38.61
2022-07-26T15:23:15.289Z,39.48
2022-07-26T15:25:42.044Z,39.82
2022-07-26T15:28:09.290Z,40.04
2022-07-26T15:30:36.960Z,39.93
2022-07-26T15:33:03.985Z,39.54
2022-07-26T15:35:31.053Z,38.79
2022-07-26T15:37:57.998Z,38.81
2022-07-26T15:40:24.929Z,38.71
2022-07-26T15:42:53.088Z,39.07
2022-07-26T15:45:21.949Z,39.26
2022-07-26T15:47:56.078Z,39.85
2022-07-26T15:50:25.525Z,39.81
2022-07-26T15:52:52.863Z,40.04
2022-07-26T15:55:20.365Z,40.16
2022-07-26T15:57:47.931Z,40.74
2022-07-26T16:00:15.910Z,40.73
2022-07-26T16:02:43.087Z,40.73
2022-07-26T16:05:11.036Z,40.67
2022-07-26T16:07:41.535Z,41.33
2022-07-26T16:10:10.680Z,41.46
2022-07-26T16:12:37.873Z,41.21
2022-07-26T16:15:06.829Z,41.12
2022-07-26T16:17:33.713Z,40.44
2022-07-26T16:20:00.845Z,40.12
2022-07-26T16:22:27.881Z,39.96
2022-07-26T16:24:54.799Z,40.51
2022-07-26T16:27:21.672Z,40.43
2022-07-26T16:29:52.324Z,40.07
2022-07-26T16:32:21.296Z,40.09
2022-07-26T16:34:48.859Z,39.98
2022-07-26T16:37:15.852Z,39.85
2022-07-26T16:39:42.678Z,39.87
2022-07-26T16:42:09.563Z,39.96
2022-07-26T16:44:36.531Z,39.92
2022-07-26T16:47:04.712Z,39.62
2022-07-26T16:49:31.755Z,39.67
2022-07-26T16:51:59.156Z,39.79
2022-07-26T16:54:26.143Z,39.45
2022-07-26T16:56:53.170Z,39.46
2022-07-26T16:59:19.992Z,39.61
2022-07-26T17:01:46.838Z,39.53
2022-07-26T17:04:13.665Z,39.41
2022-07-26T17:06:40.520Z,39.08
2022-07-26T17:09:07.509Z,38.63
2022-07-26T17:11:42.458Z,37.88
2022-07-26T17:14:09.427Z,37.24
2022-07-26T17:16:36.834Z,36.74
2022-07-26T17:19:03.789Z,36.07
2022-07-26T17:21:30.620Z,35.68
2022-07-26T17:23:58.479Z,35.16
2022-07-26T17:26:30.414Z,34.91
2022-07-26T17:28:57.552Z,34.53
2022-07-26T17:31:24.667Z,34.14
2022-07-26T17:33:51.839Z,33.79
2022-07-26T17:36:23.655Z,33.67
2022-07-26T17:38:50.670Z,33.37
2022-07-26T17:41:18.503Z,33.09
2022-07-26T17:43:46.592Z,32.78
2022-07-26T17:46:13.571Z,32.58
2022-07-26T17:48:44.057Z,32.20
2022-07-26T17:51:11.006Z,31.87
2022-07-26T17:53:37.907Z,31.77
2022-07-26T17:56:05.158Z,31.55
2022-07-26T17:58:32.003Z,31.41
2022-07-26T18:00:58.883Z,31.20
2022-07-26T18:03:25.822Z,31.04
2022-07-26T18:05:52.781Z,30.78
2022-07-26T18:08:19.649Z,30.66
2022-07-26T18:10:51.101Z,30.44
2022-07-26T18:13:18.330Z,30.16
2022-07-26T18:15:45.444Z,30.06
2022-07-26T18:18:12.519Z,29.85
2022-07-26T18:20:39.399Z,29.74
2022-07-26T18:23:06.346Z,29.60
2022-07-26T18:25:33.227Z,29.43
2022-07-26T18:28:06.396Z,29.29
2022-07-26T18:30:34.147Z,29.15
2022-07-26T18:33:01.475Z,29.11
2022-07-26T18:35:30.114Z,28.96
2022-07-26T18:37:57.069Z,28.91
2022-07-26T18:40:25.523Z,28.87
2022-07-26T18:42:53.114Z,28.72
2022-07-26T18:45:20.411Z,28.49
2022-07-26T18:47:47.211Z,28.50
2022-07-26T18:50:16.952Z,28.48
2022-07-26T18:52:44.972Z,28.42
2022-07-26T18:55:13.949Z,28.32
2022-07-26T18:57:43.075Z,28.18
2022-07-26T19:00:17.548Z,28.02
2022-07-26T19:02:45.248Z,27.78
2022-07-26T19:05:14.044Z,27.72
2022-07-26T19:07:41.043Z,27.64
2022-07-26T19:10:10.141Z,27.48
2022-07-26T19:12:37.693Z,27.35
2022-07-26T19:15:06.724Z,27.15
2022-07-26T19:17:34.348Z,27.07
2022-07-26T19:20:01.506Z,27.03
2022-07-26T19:22:30.605Z,26.76
2022-07-26T19:24:57.810Z,26.64
2022-07-26T19:27:25.290Z,26.58
2022-07-26T19:29:52.016Z,26.39
2022-07-26T19:32:19.108Z,26.29
2022-07-26T19:34:46.068Z,26.19
2022-07-26T19:37:19.814Z,25.97
2022-07-26T19:39:47.043Z,25.92
2022-07-26T19:42:14.093Z,25.74
2022-07-26T19:44:41.049Z,25.66
2022-07-26T19:47:08.084Z,25.58
2022-07-26T19:49:35.629Z,25.32
2022-07-26T19:52:02.596Z,25.42
2022-07-26T19:54:29.611Z,25.36
2022-07-26T19:56:56.785Z,25.23
2022-07-26T19:59:24.826Z,25.20
2022-07-26T20:01:56.615Z,25.09
2022-07-26T20:04:25.259Z,24.93
2022-07-26T20:06:52.190Z,24.80
2022-07-26T20:09:19.088Z,24.79
2022-07-26T20:11:50.817Z,24.60
2022-07-26T20:14:20.827Z,24.53
2022-07-26T20:16:55.819Z,24.45
2022-07-26T20:19:24.572Z,24.46
2022-07-26T20:21:51.389Z,24.34
2022-07-26T20:24:19.073Z,24.33
2022-07-26T20:26:46.094Z,24.29
2022-07-26T20:29:14.002Z,24.09
2022-07-26T20:31:41.519Z,24.05
2022-07-26T20:34:08.436Z,23.94
2022-07-26T20:36:35.349Z,23.85
2022-07-26T20:39:02.937Z,23.66
2022-07-26T20:41:33.846Z,23.68
2022-07-26T20:44:03.644Z,23.63
2022-07-26T20:46:31.610Z,23.58
2022-07-26T20:48:58.552Z,23.51
2022-07-26T20:51:25.585Z,23.46
2022-07-26T20:53:52.436Z,23.46
2022-07-26T20:56:19.270Z,23.52
2022-07-26T20:58:46.125Z,23.52
2022-07-26T21:01:14.056Z,23.55
2022-07-26T21:03:40.984Z,23.50
2022-07-26T21:06:08.541Z,23.57
2022-07-26T21:08:35.842Z,23.60
2022-07-26T21:11:02.850Z,23.65
2022-07-26T21:13:29.747Z,23.62
2022-07-26T21:15:56.695Z,23.61
2022-07-26T21:18:23.639Z,23.63
2022-07-26T21:20:50.491Z,23.66
2022-07-26T21:23:18.495Z,23.62
2022-07-26T21:25:47.345Z,23.69
2022-07-26T21:28:14.340Z,23.67
2022-07-26T21:30:41.371Z,23.57
2022-07-26T21:33:08.275Z,23.54
2022-07-26T21:35:35.011Z,23.53
2022-07-26T21:38:01.941Z,23.47
2022-07-26T21:40:28.749Z,23.37
2022-07-26T21:42:55.481Z,23.39
2022-07-26T21:45:23.101Z,23.27
2022-07-26T21:47:50.022Z,23.05
2022-07-26T21:50:17.460Z,23.03
2022-07-26T21:52:44.365Z,23.11
2022-07-26T21:55:11.482Z,22.95
2022-07-26T21:57:45.076Z,22.90
2022-07-26T22:00:14.359Z,22.98
2022-07-26T22:02:41.593Z,22.97
2022-07-26T22:05:29.109Z,22.92
2022-07-26T22:07:55.935Z,22.84
2022-07-26T22:10:22.750Z,22.85
2022-07-26T22:12:49.598Z,22.73
2022-07-26T22:15:16.458Z,22.47
2022-07-26T22:17:43.388Z,22.31
2022-07-26T22:20:11.197Z,22.30
2022-07-26T22:22:38.364Z,22.13
2022-07-26T22:25:06.034Z,22.07
2022-07-26T22:27:33.076Z,21.83
2022-07-26T22:29:59.861Z,21.67
2022-07-26T22:32:27.033Z,21.49
2022-07-26T22:34:53.879Z,21.49
2022-07-26T22:37:20.713Z,21.55
2022-07-26T22:39:47.602Z,21.34
2022-07-26T22:42:16.101Z,21.33
2022-07-26T22:44:43.288Z,21.29
2022-07-26T22:47:10.176Z,21.29
2022-07-26T22:49:37.062Z,21.24
2022-07-26T22:52:03.972Z,21.08
2022-07-26T22:54:30.747Z,20.92
2022-07-26T22:56:57.494Z,20.78
2022-07-26T22:59:25.426Z,20.58
2022-07-26T23:01:52.315Z,20.58
2022-07-26T23:04:19.182Z,20.39
2022-07-26T23:06:46.191Z,20.34
2022-07-26T23:09:13.978Z,20.20
2022-07-26T23:11:41.150Z,20.18
2022-07-26T23:14:07.942Z,20.09
2022-07-26T23:16:34.879Z,20.05
2022-07-26T23:19:01.671Z,20.04
2022-07-26T23:21:28.470Z,20.04
2022-07-26T23:23:55.612Z,20.01
2022-07-26T23:26:22.743Z,19.93
2022-07-26T23:28:50.016Z,19.96
2022-07-26T23:31:16.967Z,19.91
2022-07-26T23:33:52.256Z,19.82
2022-07-26T23:36:28.542Z,19.80
2022-07-26T23:38:57.882Z,19.74
2022-07-26T23:41:25.565Z,19.74
2022-07-26T23:43:54.154Z,19.73
2022-07-26T23:46:22.066Z,19.66
2022-07-26T23:48:50.175Z,19.61
2022-07-26T23:51:19.618Z,19.59
2022-07-26T23:53:47.293Z,19.53
2022-07-26T23:56:14.181Z,19.56
2022-07-26T23:58:41.591Z,19.57
